createdAt,value
2023-02-22T00:04:35.642Z,3.59
2023-02-22T00:09:30.348Z,3.56
2023-02-22T00:14:26.470Z,3.29
2023-02-22T00:19:20.330Z,3.21
2023-02-22T00:24:23.942Z,3.29
2023-02-22T00:29:17.612Z,3.55
2023-02-22T00:34:10.990Z,3.59
2023-02-22T00:39:04.446Z,3.61
2023-02-22T00:43:59.116Z,3.53
2023-02-22T00:48:52.455Z,3.34
2023-02-22T00:53:45.799Z,3.46
2023-02-22T00:58:39.138Z,3.48
2023-02-22T01:03:35.315Z,3.23
2023-02-22T01:08:31.201Z,3.02
2023-02-22T01:13:24.614Z,3.12
2023-02-22T01:18:18.262Z,3.17
2023-02-22T01:23:13.861Z,3.16
2023-02-22T01:28:09.087Z,3.08
2023-02-22T01:33:04.458Z,2.97
2023-02-22T01:37:58.875Z,3.07
2023-02-22T01:42:58.573Z,2.76
2023-02-22T01:47:51.975Z,2.84
2023-02-22T01:52:45.387Z,3.08
2023-02-22T01:57:40.190Z,3.12
2023-02-22T02:02:34.929Z,2.90
2023-02-22T02:07:29.679Z,2.75
2023-02-22T02:12:24.763Z,2.75
2023-02-22T02:17:23.251Z,2.83
2023-02-22T02:22:41.224Z,2.81
2023-02-22T02:28:03.322Z,2.61
2023-02-22T02:33:06.538Z,2.81
2023-02-22T02:38:10.527Z,2.68
2023-02-22T02:43:25.049Z,2.63
2023-02-22T02:48:24.519Z,2.79
2023-02-22T02:53:24.083Z,2.61
2023-02-22T02:58:21.487Z,2.43
2023-02-22T03:04:12.094Z,2.42
2023-02-22T03:09:20.476Z,2.36
2023-02-22T03:14:24.244Z,2.40
2023-02-22T03:19:28.799Z,2.36
2023-02-22T03:24:31.257Z,2.44
2023-02-22T03:29:29.599Z,2.54
2023-02-22T03:34:30.451Z,2.71
2023-02-22T03:39:31.064Z,2.65
2023-02-22T03:44:30.465Z,2.47
2023-02-22T03:49:36.106Z,2.27
2023-02-22T03:54:30.759Z,2.18
2023-02-22T03:59:27.488Z,2.30
2023-02-22T04:04:21.424Z,2.17
2023-02-22T04:09:17.196Z,2.09
2023-02-22T04:14:10.723Z,2.07
2023-02-22T04:19:04.108Z,2.18
2023-02-22T04:23:57.378Z,2.15
2023-02-22T04:28:52.239Z,1.99
2023-02-22T04:33:45.681Z,1.90
2023-02-22T04:38:39.162Z,1.69
2023-02-22T04:43:32.478Z,1.66
2023-02-22T04:48:27.283Z,1.87
2023-02-22T04:53:20.537Z,1.97
2023-02-22T04:58:13.862Z,2.07
2023-02-22T05:03:07.176Z,2.06
2023-02-22T05:08:02.125Z,2.20
2023-02-22T05:12:55.397Z,2.17
2023-02-22T05:17:49.079Z,1.97
2023-02-22T05:22:42.375Z,2.06
2023-02-22T05:27:37.107Z,2.17
2023-02-22T05:32:30.457Z,2.18
2023-02-22T05:37:23.779Z,2.04
2023-02-22T05:42:17.030Z,1.93
2023-02-22T05:47:11.675Z,2.09
2023-02-22T05:52:05.219Z,2.07
2023-02-22T05:56:58.467Z,2.17
2023-02-22T06:01:51.748Z,2.11
2023-02-22T06:06:46.342Z,2.21
2023-02-22T06:11:39.614Z,2.37
2023-02-22T06:16:32.990Z,2.39
2023-02-22T06:21:26.973Z,2.44
2023-02-22T06:26:22.931Z,2.26
2023-02-22T06:31:16.643Z,2.17
2023-02-22T06:36:11.520Z,2.33
2023-02-22T06:41:04.872Z,2.27
2023-02-22T06:45:59.628Z,2.30
2023-02-22T06:50:52.944Z,2.40
2023-02-22T06:55:46.258Z,2.32
2023-02-22T07:00:39.576Z,2.43
2023-02-22T07:05:34.387Z,2.61
2023-02-22T07:10:33.459Z,2.63
2023-02-22T07:15:30.053Z,2.67
2023-02-22T07:20:25.539Z,2.76
2023-02-22T07:25:21.181Z,2.93
2023-02-22T07:30:21.174Z,2.89
2023-02-22T07:35:19.713Z,3.08
2023-02-22T07:40:13.942Z,3.07
2023-02-22T07:45:09.445Z,3.07
2023-02-22T07:50:02.758Z,3.11
2023-02-22T07:54:56.080Z,3.17
2023-02-22T07:59:49.380Z,3.18
2023-02-22T08:04:44.034Z,3.46
2023-02-22T08:09:37.339Z,3.46
2023-02-22T08:14:30.609Z,3.53
2023-02-22T08:19:23.946Z,3.65
2023-02-22T08:24:18.691Z,3.96
2023-02-22T08:29:11.947Z,4.06
2023-02-22T08:34:05.329Z,4.30
2023-02-22T08:38:58.680Z,4.20
2023-02-22T08:43:53.597Z,4.23
2023-02-22T08:48:52.892Z,4.50
2023-02-22T08:53:46.339Z,4.53
2023-02-22T08:58:39.661Z,4.65
2023-02-22T09:03:34.420Z,4.81
2023-02-22T09:08:27.757Z,5.04
2023-02-22T09:13:21.177Z,5.21
2023-02-22T09:18:18.088Z,5.61
2023-02-22T09:23:14.513Z,5.84
2023-02-22T09:28:08.274Z,5.99
2023-02-22T09:33:05.923Z,6.08
2023-02-22T09:38:01.458Z,6.14
2023-02-22T09:43:15.166Z,6.28
2023-02-22T09:48:21.120Z,6.20
2023-02-22T09:53:30.463Z,6.22
2023-02-22T09:58:33.487Z,6.18
2023-02-22T10:03:35.483Z,6.32
2023-02-22T10:08:34.395Z,6.50
2023-02-22T10:13:44.947Z,6.69
2023-02-22T10:19:22.561Z,6.79
2023-02-22T10:24:39.706Z,6.63
2023-02-22T10:29:41.842Z,6.77
2023-02-22T10:34:44.086Z,6.93
2023-02-22T10:39:41.755Z,7.22
2023-02-22T10:44:38.093Z,7.26
2023-02-22T10:49:39.518Z,7.43
2023-02-22T10:54:41.085Z,7.54
2023-02-22T10:59:39.549Z,7.56
2023-02-22T11:04:49.583Z,7.65
2023-02-22T11:09:53.259Z,7.71
2023-02-22T11:14:48.228Z,7.95
2023-02-22T11:19:49.707Z,8.00
2023-02-22T11:24:51.739Z,7.84
2023-02-22T11:29:50.932Z,7.82
2023-02-22T11:34:45.624Z,7.85
2023-02-22T11:39:39.071Z,7.86
2023-02-22T11:44:34.237Z,7.80
2023-02-22T11:49:38.548Z,7.79
2023-02-22T11:55:02.472Z,7.88
2023-02-22T12:00:16.706Z,8.11
2023-02-22T12:05:26.431Z,8.26
2023-02-22T12:10:47.100Z,8.54
2023-02-22T12:15:54.058Z,8.60
2023-02-22T12:20:53.526Z,8.79
2023-02-22T12:26:00.179Z,8.73
2023-02-22T12:31:02.465Z,8.91
2023-02-22T12:36:00.555Z,9.08
2023-02-22T12:41:04.601Z,9.28
2023-02-22T12:46:07.828Z,9.33
2023-02-22T12:51:16.429Z,9.51
2023-02-22T12:56:26.733Z,9.67
2023-02-22T13:01:25.692Z,9.98
2023-02-22T13:06:52.275Z,10.36
2023-02-22T13:12:00.876Z,10.63
2023-02-22T13:17:02.917Z,10.64
2023-02-22T13:22:05.470Z,10.68
2023-02-22T13:27:07.731Z,10.77
2023-02-22T13:32:23.487Z,10.96
2023-02-22T13:37:46.002Z,10.97
2023-02-22T13:43:07.528Z,11.06
2023-02-22T13:48:21.222Z,11.20
2023-02-22T13:53:22.580Z,11.42
2023-02-22T13:58:17.645Z,11.68
2023-02-22T14:03:41.884Z,11.76
2023-02-22T14:08:43.642Z,12.31
2023-02-22T14:14:17.741Z,12.39
2023-02-22T14:19:20.483Z,12.10
2023-02-22T14:24:18.890Z,12.16
2023-02-22T14:29:21.751Z,12.19
2023-02-22T14:34:17.477Z,12.30
2023-02-22T14:39:19.601Z,12.51
2023-02-22T14:44:14.746Z,12.59
2023-02-22T14:49:19.010Z,12.79
2023-02-22T14:54:26.015Z,13.04
2023-02-22T14:59:24.156Z,13.00
2023-02-22T15:04:25.726Z,13.05
2023-02-22T15:09:27.680Z,13.13
2023-02-22T15:14:26.683Z,13.01
2023-02-22T15:19:28.075Z,12.99
2023-02-22T15:24:26.676Z,12.76
2023-02-22T15:29:24.793Z,12.63
2023-02-22T15:34:27.089Z,12.75
2023-02-22T15:39:25.659Z,12.38
2023-02-22T15:44:23.718Z,12.39
2023-02-22T15:49:24.824Z,12.34
2023-02-22T15:54:27.182Z,12.22
2023-02-22T15:59:22.673Z,12.17
2023-02-22T16:04:20.456Z,12.18
2023-02-22T16:09:18.817Z,12.14
2023-02-22T16:14:29.610Z,12.07
2023-02-22T16:19:39.651Z,12.06
2023-02-22T16:24:37.564Z,11.89
2023-02-22T16:29:31.226Z,11.80
2023-02-22T16:34:24.580Z,11.75
2023-02-22T16:39:27.232Z,11.68
2023-02-22T16:44:23.156Z,11.49
2023-02-22T16:49:16.502Z,11.34
2023-02-22T16:54:15.158Z,11.22
2023-02-22T16:59:14.074Z,11.17
2023-02-22T17:04:17.881Z,11.11
2023-02-22T17:09:11.498Z,11.02
2023-02-22T17:14:05.502Z,10.95
2023-02-22T17:18:58.902Z,10.83
2023-02-22T17:23:53.664Z,10.65
2023-02-22T17:28:47.201Z,10.81
2023-02-22T17:33:40.686Z,10.83
2023-02-22T17:38:34.796Z,10.63
2023-02-22T17:43:30.166Z,10.46
2023-02-22T17:48:24.571Z,10.30
2023-02-22T17:53:21.881Z,10.17
2023-02-22T17:58:15.455Z,10.18
2023-02-22T18:03:15.711Z,10.05
2023-02-22T18:08:09.561Z,10.05
2023-02-22T18:13:04.114Z,10.13
2023-02-22T18:17:58.294Z,10.16
2023-02-22T18:22:52.911Z,9.94
2023-02-22T18:27:46.214Z,9.82
2023-02-22T18:32:39.609Z,9.79
2023-02-22T18:37:33.266Z,9.77
2023-02-22T18:42:29.549Z,9.70
2023-02-22T18:47:23.548Z,9.65
2023-02-22T18:52:16.921Z,9.60
2023-02-22T18:57:12.684Z,9.58
2023-02-22T19:02:08.649Z,9.53
2023-02-22T19:07:02.021Z,9.58
2023-02-22T19:11:55.396Z,9.58
2023-02-22T19:16:51.658Z,9.52
2023-02-22T19:21:46.358Z,9.43
2023-02-22T19:26:39.992Z,9.38
2023-02-22T19:31:34.663Z,9.33
2023-02-22T19:36:28.645Z,9.29
2023-02-22T19:41:24.514Z,9.26
2023-02-22T19:46:18.910Z,9.16
2023-02-22T19:51:15.157Z,9.09
2023-02-22T19:58:20.903Z,8.98
2023-02-22T20:01:33.275Z,9.00
2023-02-22T20:06:35.923Z,8.98
2023-02-22T20:11:29.924Z,8.98
2023-02-22T20:16:23.374Z,8.99
2023-02-22T20:21:22.957Z,8.99
2023-02-22T20:26:19.746Z,8.97
2023-02-22T20:31:17.182Z,8.97
2023-02-22T20:36:13.464Z,8.94
2023-02-22T20:41:09.524Z,8.90
2023-02-22T20:46:03.829Z,8.88
2023-02-22T20:50:57.429Z,8.82
2023-02-22T20:55:53.651Z,8.78
2023-02-22T21:00:48.479Z,8.71
2023-02-22T21:05:44.705Z,8.69
2023-02-22T21:10:43.148Z,8.65
2023-02-22T21:15:43.478Z,8.68
2023-02-22T21:20:40.831Z,8.68
2023-02-22T21:25:34.172Z,8.71
2023-02-22T21:30:28.325Z,8.72
2023-02-22T21:35:22.625Z,8.72
2023-02-22T21:40:20.206Z,8.70
2023-02-22T21:45:13.709Z,8.67
2023-02-22T21:50:10.344Z,8.67
2023-02-22T21:55:04.043Z,8.70
2023-02-22T21:59:58.749Z,8.65
2023-02-22T22:04:52.099Z,8.65
2023-02-22T22:09:45.498Z,8.65
2023-02-22T22:14:40.303Z,8.65
2023-02-22T22:19:40.390Z,8.65
2023-02-22T22:24:34.980Z,8.67
2023-02-22T22:29:28.667Z,8.69
2023-02-22T22:34:24.308Z,8.64
2023-02-22T22:39:21.134Z,8.65
2023-02-22T22:44:16.384Z,8.64
2023-02-22T22:49:11.877Z,8.65
2023-02-22T22:54:07.050Z,8.62
2023-02-22T22:59:12.026Z,8.62
2023-02-22T23:04:08.569Z,8.63
2023-02-22T23:09:11.754Z,8.62
2023-02-22T23:14:07.099Z,8.70
2023-02-22T23:19:00.609Z,8.70
2023-02-22T23:23:58.613Z,8.68
2023-02-22T23:28:52.523Z,8.70
2023-02-22T23:33:49.273Z,8.70
2023-02-22T23:38:43.493Z,8.72
2023-02-22T23:43:40.358Z,8.75
2023-02-22T23:48:35.832Z,8.82
2023-02-22T23:53:30.492Z,8.84
2023-02-22T23:58:26.872Z,8.91
